Aérodrome :
LOGIN :

S'inscrire | Disclaimer

   EN    FR    IT 

 










Légende :    VFR   VFR Marginal   IFR   IFR Intensif   IFR Très Intensif
Visi : 
Plafond : 
>= 8 km
>= 3000ft
5 à 8 km
1000 à 3000 ft
1500m à 5 km
500 à 1000 ft
800 à 1500m
200 à 500 ft
< 800m
< 200 ft
Symboles :   Orages  Brouillard  Fortes neiges  Fortes précipitations  Vent > 20 kt
SIGMETs :   Divers  Orages  Givrage  Turbulence  Onde Orograph.  Cendres Volcan.






- Altitude de l'aérodrome : 1161 ft
- Code IATA : RJL


LELO - Logroño-Agoncillo

DERNIER METAR :
  • 080930Z 10007KT 050V160 CAVOK 24/13 Q1018

METARs EXPIRÉS :
  • 080900Z VRB02KT CAVOK 23/13 Q1018
  • 080830Z VRB01KT CAVOK 21/13 Q1018
  • 080800Z 00000KT CAVOK 20/14 Q1018
  • 080730Z 26003KT 200V330 CAVOK 18/14 Q1018
  • 080700Z 27004KT 210V320 CAVOK 18/13 Q1018

TAF TAF LELO
Valide du 08 à 09h jusqu'au 08 à 18h UTC


080800Z 0809/0818 04010KT CAVOK
BECMG 0810/0812 06010KT
PROB40
TEMPO 0814/0818 SHRA FEW045TCU



MET'MAP, la Météo Aéronautique d'un coup d'oeil ! - Copyright ORBIFLY Décembre 2007 - Disclaimer

ORBIFLY MET'MAP TEAM :

Programmation & Développement : Alexandra Zaïnal
Sur une idée originale de : Baudouin d'Aumeries
Assistance à la programmation : Marc-Olivier Méhu
Soutien technique & logistique : Manuel Goepfert

Contact : metmap@orbifly.com




SOURCES & CREDITS :

   NOAA